createdAt,value
2017-02-01T00:00:59.273Z,0
2017-02-01T00:02:09.008Z,0
2017-02-01T00:03:19.182Z,0
2017-02-01T00:04:29.401Z,0
2017-02-01T00:05:39.127Z,0
2017-02-01T00:06:48.860Z,0
2017-02-01T00:07:58.149Z,0
2017-02-01T00:09:08.327Z,0
2017-02-01T00:10:18.587Z,0
2017-02-01T00:11:28.760Z,0
2017-02-01T00:12:38.493Z,0
2017-02-01T00:13:48.665Z,0
2017-02-01T00:14:58.416Z,0
2017-02-01T00:16:08.203Z,0
2017-02-01T00:17:18.814Z,0
2017-02-01T00:18:28.548Z,0
2017-02-01T00:19:38.736Z,0
2017-02-01T00:20:48.470Z,0
2017-02-01T00:21:58.251Z,0
2017-02-01T00:23:07.984Z,0
2017-02-01T00:24:18.158Z,0
2017-02-01T00:25:27.454Z,0
2017-02-01T00:26:38.063Z,0
2017-02-01T00:27:47.848Z,0
2017-02-01T00:28:57.578Z,0
2017-02-01T00:30:07.302Z,0
2017-02-01T00:31:17.472Z,0
2017-02-01T00:32:27.205Z,0
2017-02-01T00:33:36.987Z,0
2017-02-01T00:34:46.724Z,0
2017-02-01T00:35:57.346Z,0
2017-02-01T00:37:07.518Z,0
2017-02-01T00:38:17.263Z,0
2017-02-01T00:39:27.045Z,0
2017-02-01T00:40:37.222Z,0
2017-02-01T00:41:46.953Z,0
2017-02-01T00:42:56.698Z,0
2017-02-01T00:44:06.873Z,0
2017-02-01T00:45:16.654Z,0
2017-02-01T00:46:26.831Z,0
2017-02-01T00:47:36.568Z,0
2017-02-01T00:48:46.742Z,0
2017-02-01T00:49:56.913Z,0
2017-02-01T00:51:07.143Z,0
2017-02-01T00:52:17.322Z,0
2017-02-01T00:53:27.058Z,0
2017-02-01T00:54:36.796Z,0
2017-02-01T00:55:46.972Z,0
2017-02-01T00:56:56.754Z,0
2017-02-01T00:58:06.042Z,0
2017-02-01T00:59:15.778Z,0
2017-02-01T01:00:26.391Z,0
2017-02-01T01:01:36.562Z,0
2017-02-01T01:02:46.340Z,0
2017-02-01T01:03:56.108Z,0
2017-02-01T01:05:05.402Z,0
2017-02-01T01:06:15.574Z,0
2017-02-01T01:07:25.308Z,0
2017-02-01T01:08:34.650Z,0
2017-02-01T01:09:44.386Z,0
2017-02-01T01:10:54.118Z,0
2017-02-01T01:12:05.172Z,0
2017-02-01T01:13:14.901Z,0
2017-02-01T01:14:24.242Z,0
2017-02-01T01:15:33.975Z,0
2017-02-01T01:16:43.717Z,0
2017-02-01T01:17:53.450Z,0
2017-02-01T01:19:02.763Z,0
2017-02-01T01:20:12.547Z,0
2017-02-01T01:21:22.724Z,0
2017-02-01T01:22:32.457Z,0
2017-02-01T01:23:41.741Z,0
2017-02-01T01:24:51.468Z,0
2017-02-01T01:26:01.688Z,0
2017-02-01T01:27:11.430Z,0
2017-02-01T01:28:21.607Z,0
2017-02-01T01:29:31.339Z,0
2017-02-01T01:30:41.072Z,0
2017-02-01T01:31:51.292Z,0
2017-02-01T01:33:01.459Z,0
2017-02-01T01:34:11.639Z,0
2017-02-01T01:35:21.805Z,0
2017-02-01T01:36:31.541Z,0
2017-02-01T01:37:41.331Z,0
2017-02-01T01:38:51.504Z,0
2017-02-01T01:40:01.240Z,0
2017-02-01T01:41:10.969Z,0
2017-02-01T01:42:20.708Z,0
2017-02-01T01:43:30.939Z,0
2017-02-01T01:44:41.145Z,0
2017-02-01T01:45:50.435Z,0
2017-02-01T01:47:00.171Z,0
2017-02-01T01:48:10.780Z,0
2017-02-01T01:49:21.006Z,0
2017-02-01T01:50:30.739Z,0
2017-02-01T01:51:40.913Z,0
2017-02-01T01:52:50.685Z,0
2017-02-01T01:54:00.863Z,0
2017-02-01T01:55:10.651Z,0
2017-02-01T01:56:20.854Z,0
2017-02-01T01:57:31.026Z,0
2017-02-01T01:58:40.759Z,0
2017-02-01T01:59:50.936Z,0
2017-02-01T02:01:00.720Z,0
2017-02-01T02:02:11.337Z,0
2017-02-01T02:03:21.520Z,0
2017-02-01T02:04:31.723Z,0
2017-02-01T02:05:41.460Z,0
2017-02-01T02:06:51.238Z,0
2017-02-01T02:08:01.413Z,0
2017-02-01T02:09:11.152Z,0
2017-02-01T02:10:21.325Z,0
2017-02-01T02:11:31.063Z,0
2017-02-01T02:12:40.840Z,0
2017-02-01T02:13:50.553Z,0
2017-02-01T02:15:00.272Z,0
2017-02-01T02:16:09.994Z,0
2017-02-01T02:17:20.584Z,0
2017-02-01T02:18:30.356Z,0
2017-02-01T02:19:40.523Z,0
2017-02-01T02:20:49.802Z,0
2017-02-01T02:21:59.965Z,0
2017-02-01T02:23:10.562Z,0
2017-02-01T02:24:20.775Z,0
2017-02-01T02:25:30.495Z,0
2017-02-01T02:26:40.654Z,0
2017-02-01T02:27:50.811Z,0
2017-02-01T02:29:00.533Z,0
2017-02-01T02:30:10.299Z,0
2017-02-01T02:31:20.022Z,0
2017-02-01T02:32:30.180Z,0
2017-02-01T02:33:40.335Z,0
2017-02-01T02:34:50.074Z,0
2017-02-01T02:35:59.405Z,0
2017-02-01T02:37:09.561Z,0
2017-02-01T02:38:18.847Z,0
2017-02-01T02:39:29.007Z,0
2017-02-01T02:40:39.165Z,0
2017-02-01T02:41:49.041Z,0
2017-02-01T02:42:58.330Z,0
2017-02-01T02:44:07.606Z,0
2017-02-01T02:45:16.912Z,0
2017-02-01T02:46:27.069Z,0
2017-02-01T02:47:37.274Z,0
2017-02-01T02:48:47.437Z,0
2017-02-01T02:49:57.182Z,0
2017-02-01T02:51:07.342Z,0
2017-02-01T02:52:17.932Z,0
2017-02-01T02:53:28.136Z,0
2017-02-01T02:54:37.855Z,0
2017-02-01T02:55:47.565Z,0
2017-02-01T02:56:57.730Z,0
2017-02-01T02:58:07.013Z,0
2017-02-01T02:59:17.660Z,0
2017-02-01T03:00:28.253Z,0
2017-02-01T03:01:38.854Z,0
2017-02-01T03:02:48.570Z,0
2017-02-01T03:03:58.722Z,0
2017-02-01T03:05:08.921Z,0
2017-02-01T03:06:19.080Z,0
2017-02-01T03:07:28.353Z,0
2017-02-01T03:08:38.101Z,0
2017-02-01T03:09:48.688Z,0
2017-02-01T03:10:58.462Z,0
2017-02-01T03:12:08.185Z,0
2017-02-01T03:13:17.905Z,0
2017-02-01T03:14:28.944Z,0
2017-02-01T03:15:38.665Z,0
2017-02-01T03:16:48.003Z,0
2017-02-01T03:17:58.155Z,0
2017-02-01T03:19:07.876Z,0
2017-02-01T03:20:17.603Z,0
2017-02-01T03:21:27.760Z,0
2017-02-01T03:22:37.523Z,0
2017-02-01T03:23:47.241Z,0
2017-02-01T03:24:57.394Z,0
2017-02-01T03:26:07.111Z,0
2017-02-01T03:27:17.705Z,0
2017-02-01T03:28:27.916Z,0
2017-02-01T03:29:37.199Z,0
2017-02-01T03:30:47.361Z,0
2017-02-01T03:31:57.524Z,0
2017-02-01T03:33:07.259Z,0
2017-02-01T03:34:17.034Z,0
2017-02-01T03:35:27.199Z,0
2017-02-01T03:36:37.347Z,0
2017-02-01T03:37:46.634Z,0
2017-02-01T03:38:55.937Z,0
2017-02-01T03:40:06.152Z,0
2017-02-01T03:41:15.868Z,0
2017-02-01T03:42:25.590Z,0
2017-02-01T03:43:35.779Z,0
2017-02-01T03:44:45.938Z,0
2017-02-01T03:45:55.275Z,0
2017-02-01T03:47:04.987Z,0
2017-02-01T03:48:14.274Z,0
2017-02-01T03:49:24.433Z,0
2017-02-01T03:50:33.716Z,0
2017-02-01T03:51:43.481Z,0
2017-02-01T03:52:52.763Z,0
2017-02-01T03:54:02.490Z,0
2017-02-01T03:55:12.640Z,0
2017-02-01T03:56:22.360Z,0
2017-02-01T03:57:32.128Z,0
2017-02-01T03:58:41.446Z,0
2017-02-01T03:59:51.602Z,0
2017-02-01T04:01:01.319Z,0
2017-02-01T04:02:11.036Z,0
2017-02-01T04:03:20.806Z,0
2017-02-01T04:04:31.399Z,0
2017-02-01T04:05:40.680Z,0
2017-02-01T04:06:51.282Z,0
2017-02-01T04:08:01.436Z,0
2017-02-01T04:09:11.207Z,0
2017-02-01T04:10:21.363Z,0
2017-02-01T04:11:31.527Z,0
2017-02-01T04:12:41.247Z,0
2017-02-01T04:13:50.974Z,0
2017-02-01T04:15:00.302Z,0
2017-02-01T04:16:10.020Z,0
2017-02-01T04:17:20.177Z,0
2017-02-01T04:18:29.467Z,0
2017-02-01T04:19:38.743Z,0
2017-02-01T04:20:48.957Z,0
2017-02-01T04:21:59.105Z,0
2017-02-01T04:23:09.703Z,0
2017-02-01T04:24:19.429Z,0
2017-02-01T04:25:30.023Z,0
2017-02-01T04:26:40.663Z,0
2017-02-01T04:27:50.379Z,0
2017-02-01T04:28:59.664Z,0
2017-02-01T04:30:09.387Z,0
2017-02-01T04:31:18.672Z,0
2017-02-01T04:32:28.885Z,0
2017-02-01T04:33:38.603Z,0
2017-02-01T04:34:48.324Z,0
2017-02-01T04:35:58.049Z,0
2017-02-01T04:37:08.200Z,0
2017-02-01T04:38:17.538Z,0
2017-02-01T04:39:27.703Z,0
2017-02-01T04:40:38.294Z,0
2017-02-01T04:41:48.883Z,0
2017-02-01T04:42:58.171Z,0
2017-02-01T04:44:08.386Z,0
2017-02-01T04:45:18.103Z,0
2017-02-01T04:46:27.820Z,0
2017-02-01T04:47:37.541Z,0
2017-02-01T04:48:48.138Z,0
2017-02-01T04:49:57.908Z,0
2017-02-01T04:51:08.071Z,0
2017-02-01T04:52:17.371Z,0
2017-02-01T04:53:27.530Z,0
2017-02-01T04:54:36.815Z,0
2017-02-01T04:55:47.030Z,0
2017-02-01T04:56:56.747Z,0
2017-02-01T04:58:06.031Z,0
2017-02-01T04:59:15.751Z,0
2017-02-01T05:00:25.465Z,0
2017-02-01T05:01:36.116Z,0
2017-02-01T05:02:45.832Z,0
2017-02-01T05:03:55.997Z,0
2017-02-01T05:05:06.160Z,0
2017-02-01T05:06:16.753Z,0
2017-02-01T05:07:26.086Z,0
2017-02-01T05:08:35.370Z,0
2017-02-01T05:09:45.532Z,0
2017-02-01T05:10:55.685Z,0
2017-02-01T05:12:05.847Z,0
2017-02-01T05:13:16.230Z,0
2017-02-01T05:14:27.264Z,0
2017-02-01T05:15:36.980Z,0
2017-02-01T05:16:47.575Z,0
2017-02-01T05:17:57.287Z,0
2017-02-01T05:19:07.494Z,0
2017-02-01T05:20:16.773Z,0
2017-02-01T05:21:26.923Z,0
2017-02-01T05:22:36.632Z,0
2017-02-01T05:23:47.227Z,0
2017-02-01T05:24:56.559Z,0
2017-02-01T05:26:06.723Z,0
2017-02-01T05:27:16.002Z,0
2017-02-01T05:28:26.163Z,0
2017-02-01T05:29:35.881Z,0
2017-02-01T05:30:45.214Z,0
2017-02-01T05:31:54.939Z,0
2017-02-01T05:33:04.652Z,0
2017-02-01T05:34:14.377Z,0
2017-02-01T05:35:24.091Z,0
2017-02-01T05:36:34.306Z,0
2017-02-01T05:37:43.585Z,0
2017-02-01T05:38:53.303Z,0
2017-02-01T05:40:03.027Z,0
2017-02-01T05:41:12.740Z,0
2017-02-01T05:42:22.076Z,0
2017-02-01T05:43:32.236Z,0
2017-02-01T05:44:41.964Z,0
2017-02-01T05:45:51.250Z,0
2017-02-01T05:47:00.970Z,0
2017-02-01T05:48:10.739Z,0
2017-02-01T05:49:20.020Z,0
2017-02-01T05:50:30.182Z,0
2017-02-01T05:51:39.905Z,0
2017-02-01T05:52:50.064Z,0
2017-02-01T05:54:00.269Z,0
2017-02-01T05:55:09.988Z,0
2017-02-01T05:56:20.576Z,0
2017-02-01T05:57:30.737Z,0
2017-02-01T05:58:40.458Z,0
2017-02-01T05:59:51.095Z,0
2017-02-01T06:01:01.256Z,0
2017-02-01T06:02:10.988Z,0
2017-02-01T06:03:21.141Z,0
2017-02-01T06:04:31.744Z,0
2017-02-01T06:05:41.949Z,0
2017-02-01T06:06:51.671Z,0
2017-02-01T06:08:01.827Z,0
2017-02-01T06:09:11.549Z,0
2017-02-01T06:10:21.274Z,0
2017-02-01T06:11:30.607Z,0
2017-02-01T06:12:40.764Z,0
2017-02-01T06:13:50.489Z,0
2017-02-01T06:15:00.210Z,0
2017-02-01T06:16:09.490Z,0
2017-02-01T06:17:19.256Z,0
2017-02-01T06:18:28.979Z,0
2017-02-01T06:19:38.701Z,0
2017-02-01T06:20:48.864Z,0
2017-02-01T06:21:58.585Z,0
2017-02-01T06:23:08.353Z,0
2017-02-01T06:24:18.085Z,0
2017-02-01T06:25:27.800Z,0
2017-02-01T06:26:37.527Z,0
2017-02-01T06:27:48.124Z,0
2017-02-01T06:28:58.355Z,0
2017-02-01T06:30:08.072Z,0
2017-02-01T06:31:17.791Z,0
2017-02-01T06:32:27.949Z,0
2017-02-01T06:33:37.666Z,4
2017-02-01T06:34:47.435Z,0
2017-02-01T06:35:57.634Z,0
2017-02-01T06:37:07.790Z,4
2017-02-01T06:38:17.514Z,4
2017-02-01T06:39:26.797Z,8
2017-02-01T06:40:36.561Z,4
2017-02-01T06:41:46.279Z,4
2017-02-01T06:42:56.005Z,8
2017-02-01T06:44:05.307Z,12
2017-02-01T06:45:15.452Z,12
2017-02-01T06:46:25.658Z,16
2017-02-01T06:47:35.374Z,16
2017-02-01T06:48:45.971Z,20
2017-02-01T06:49:55.693Z,24
2017-02-01T06:51:05.848Z,24
2017-02-01T06:52:15.185Z,32
2017-02-01T06:53:24.464Z,36
2017-02-01T06:54:34.185Z,40
2017-02-01T06:55:44.781Z,44
2017-02-01T06:56:55.376Z,52
2017-02-01T06:58:05.590Z,56
2017-02-01T06:59:14.875Z,60
2017-02-01T07:00:24.627Z,68
2017-02-01T07:01:34.790Z,76
2017-02-01T07:02:44.079Z,80
2017-02-01T07:03:54.284Z,92
2017-02-01T07:05:03.562Z,100
2017-02-01T07:06:13.306Z,104
2017-02-01T07:07:22.580Z,108
2017-02-01T07:08:32.743Z,124
2017-02-01T07:09:42.509Z,136
2017-02-01T07:10:53.103Z,140
2017-02-01T07:12:02.414Z,152
2017-02-01T07:13:12.132Z,160
2017-02-01T07:14:22.289Z,176
2017-02-01T07:15:32.059Z,180
2017-02-01T07:16:41.344Z,196
2017-02-01T07:17:51.506Z,204
2017-02-01T07:19:01.246Z,228
2017-02-01T07:20:11.399Z,244
2017-02-01T07:21:21.165Z,244
2017-02-01T07:22:31.326Z,248
2017-02-01T07:23:41.046Z,264
2017-02-01T07:24:50.767Z,276
2017-02-01T07:26:00.487Z,296
2017-02-01T07:27:11.138Z,296
2017-02-01T07:28:21.733Z,320
2017-02-01T07:29:32.329Z,340
2017-02-01T07:30:42.927Z,352
2017-02-01T07:31:53.081Z,372
2017-02-01T07:33:02.853Z,376
2017-02-01T07:34:12.604Z,388
2017-02-01T07:35:21.887Z,392
2017-02-01T07:36:31.609Z,392
2017-02-01T07:37:40.894Z,396
2017-02-01T07:38:51.103Z,388
2017-02-01T07:40:00.815Z,420
2017-02-01T07:41:10.985Z,432
2017-02-01T07:42:21.147Z,424
2017-02-01T07:43:30.862Z,420
2017-02-01T07:44:40.644Z,420
2017-02-01T07:45:50.805Z,448
2017-02-01T07:47:00.534Z,448
2017-02-01T07:48:10.688Z,468
2017-02-01T07:49:21.286Z,516
2017-02-01T07:50:30.615Z,532
2017-02-01T07:51:39.892Z,556
2017-02-01T07:52:50.048Z,592
2017-02-01T07:53:59.775Z,608
2017-02-01T07:55:09.056Z,616
2017-02-01T07:56:18.833Z,624
2017-02-01T07:57:28.560Z,624
2017-02-01T07:58:38.716Z,628
2017-02-01T07:59:48.012Z,616
2017-02-01T08:00:57.728Z,636
2017-02-01T08:02:07.493Z,664
2017-02-01T08:03:17.652Z,716
2017-02-01T08:04:27.813Z,732
2017-02-01T08:05:37.527Z,716
2017-02-01T08:06:47.242Z,760
2017-02-01T08:07:57.453Z,772
2017-02-01T08:09:07.162Z,812
2017-02-01T08:10:17.311Z,812
2017-02-01T08:11:26.592Z,828
2017-02-01T08:12:36.308Z,824
2017-02-01T08:13:46.519Z,872
2017-02-01T08:14:55.798Z,964
2017-02-01T08:16:05.953Z,980
2017-02-01T08:17:16.115Z,936
2017-02-01T08:18:25.403Z,980
2017-02-01T08:19:35.760Z,1104
2017-02-01T08:20:45.482Z,1060
2017-02-01T08:21:55.194Z,1048
2017-02-01T08:23:05.356Z,1060
2017-02-01T08:24:15.950Z,1164
2017-02-01T08:25:25.282Z,1184
2017-02-01T08:26:35.004Z,1160
2017-02-01T08:27:44.721Z,1064
2017-02-01T08:28:54.440Z,1064
2017-02-01T08:30:05.039Z,1104
2017-02-01T08:31:15.245Z,1040
2017-02-01T08:32:25.402Z,1024
2017-02-01T08:33:35.566Z,1080
2017-02-01T08:34:45.287Z,1052
2017-02-01T08:35:55.033Z,1072
2017-02-01T08:37:04.813Z,1040
2017-02-01T08:38:14.539Z,1020
2017-02-01T08:39:23.819Z,1040
2017-02-01T08:40:33.977Z,1084
2017-02-01T08:41:44.131Z,1064
2017-02-01T08:42:53.899Z,1088
2017-02-01T08:44:03.617Z,1148
2017-02-01T08:45:13.338Z,1160
2017-02-01T08:46:23.489Z,1240
2017-02-01T08:47:33.216Z,1276
2017-02-01T08:48:42.981Z,1328
2017-02-01T08:49:53.135Z,1336
2017-02-01T08:51:03.292Z,1240
2017-02-01T08:52:13.019Z,1344
2017-02-01T08:53:23.185Z,1336
2017-02-01T08:54:32.966Z,1324
2017-02-01T08:55:42.679Z,1344
2017-02-01T08:56:53.278Z,1300
2017-02-01T08:58:03.431Z,1364
2017-02-01T08:59:12.714Z,1444
2017-02-01T09:00:23.025Z,1588
2017-02-01T09:01:32.749Z,1648
2017-02-01T09:02:42.476Z,1624
2017-02-01T09:03:52.192Z,1636
2017-02-01T09:05:02.786Z,1632
2017-02-01T09:06:13.013Z,1688
2017-02-01T09:07:23.171Z,1684
2017-02-01T09:08:32.920Z,1572
2017-02-01T09:09:42.637Z,1652
2017-02-01T09:10:52.795Z,1624
2017-02-01T09:12:02.128Z,1588
2017-02-01T09:13:12.727Z,1704
2017-02-01T09:14:22.889Z,1676
2017-02-01T09:15:33.046Z,1656
2017-02-01T09:16:42.777Z,1696
2017-02-01T09:17:52.548Z,1716
2017-02-01T09:19:02.279Z,1788
2017-02-01T09:20:12.437Z,1840
2017-02-01T09:21:21.728Z,1820
2017-02-01T09:22:31.895Z,1988
2017-02-01T09:23:41.666Z,1920
2017-02-01T09:24:51.828Z,1876
2017-02-01T09:26:01.554Z,1812
2017-02-01T09:27:11.279Z,1820
2017-02-01T09:28:20.560Z,1728
2017-02-01T09:29:30.760Z,1680
2017-02-01T09:30:40.923Z,1692
2017-02-01T09:31:50.645Z,1668
2017-02-01T09:33:00.817Z,1780
2017-02-01T09:34:10.101Z,1708
2017-02-01T09:35:19.875Z,1496
2017-02-01T09:36:29.604Z,1492
2017-02-01T09:37:40.206Z,1748
2017-02-01T09:38:49.502Z,1756
2017-02-01T09:39:58.796Z,1692
2017-02-01T09:41:08.669Z,1664
2017-02-01T09:42:18.392Z,1660
2017-02-01T09:43:27.679Z,1672
2017-02-01T09:44:37.404Z,1668
2017-02-01T09:45:46.701Z,1752
2017-02-01T09:46:56.474Z,1788
2017-02-01T09:48:05.764Z,1716
2017-02-01T09:49:15.481Z,1780
2017-02-01T09:50:24.766Z,1760
2017-02-01T09:51:34.927Z,1892
2017-02-01T09:52:45.573Z,1876
2017-02-01T09:53:54.859Z,1728
2017-02-01T09:55:04.155Z,1664
2017-02-01T09:56:14.319Z,1660
2017-02-01T09:57:24.478Z,1964
2017-02-01T09:58:34.693Z,1920
2017-02-01T09:59:45.287Z,2100
2017-02-01T10:00:55.012Z,2012
2017-02-01T10:02:05.168Z,2104
2017-02-01T10:03:15.323Z,1876
2017-02-01T10:04:25.528Z,2272
2017-02-01T10:05:35.689Z,2172
2017-02-01T10:06:45.850Z,2096
2017-02-01T10:07:56.876Z,2032
2017-02-01T10:09:07.042Z,2036
2017-02-01T10:10:16.372Z,2388
2017-02-01T10:11:26.533Z,2296
2017-02-01T10:12:36.691Z,2104
2017-02-01T10:13:47.285Z,2224
2017-02-01T10:14:57.443Z,2464
2017-02-01T10:16:08.084Z,2084
2017-02-01T10:17:18.270Z,1960
2017-02-01T10:18:28.424Z,2364
2017-02-01T10:19:39.017Z,2456
2017-02-01T10:20:48.309Z,2112
2017-02-01T10:21:58.078Z,1860
2017-02-01T10:23:08.584Z,1932
2017-02-01T10:24:17.866Z,1952
2017-02-01T10:25:28.062Z,2200
2017-02-01T10:26:37.776Z,2248
2017-02-01T10:27:47.545Z,2132
2017-02-01T10:28:57.265Z,2208
2017-02-01T10:30:06.564Z,1996
2017-02-01T10:31:16.280Z,1716
2017-02-01T10:32:26.005Z,1776
2017-02-01T10:33:36.215Z,1944
2017-02-01T10:34:45.932Z,1972
2017-02-01T10:35:55.652Z,1820
2017-02-01T10:37:05.378Z,1728
2017-02-01T10:38:14.666Z,1684
2017-02-01T10:39:24.878Z,2012
2017-02-01T10:40:34.163Z,2052
2017-02-01T10:41:43.898Z,1884
2017-02-01T10:42:53.621Z,1948
2017-02-01T10:44:02.914Z,1916
2017-02-01T10:45:12.399Z,1948
2017-02-01T10:46:22.123Z,2148
2017-02-01T10:47:32.721Z,2040
2017-02-01T10:48:42.443Z,1924
2017-02-01T10:49:52.159Z,2104
2017-02-01T10:51:01.930Z,2164
2017-02-01T10:52:11.650Z,2212
2017-02-01T10:53:21.838Z,2204
2017-02-01T10:54:31.993Z,2120
2017-02-01T10:55:41.714Z,2252
2017-02-01T10:56:51.479Z,2364
2017-02-01T10:58:01.637Z,2480
2017-02-01T10:59:11.360Z,2408
2017-02-01T11:00:21.509Z,2152
2017-02-01T11:01:30.818Z,2340
2017-02-01T11:02:41.025Z,2280
2017-02-01T11:03:51.190Z,2204
2017-02-01T11:05:00.918Z,2064
2017-02-01T11:06:11.519Z,2232
2017-02-01T11:07:21.245Z,2172
2017-02-01T11:08:30.575Z,2084
2017-02-01T11:09:40.733Z,2048
2017-02-01T11:10:50.457Z,2108
2017-02-01T11:11:59.739Z,2104
2017-02-01T11:13:09.463Z,1972
2017-02-01T11:14:19.231Z,2028
2017-02-01T11:15:28.518Z,2128
2017-02-01T11:16:38.250Z,2532
2017-02-01T11:17:48.405Z,2604
2017-02-01T11:18:58.119Z,2540
2017-02-01T11:20:08.317Z,2692
2017-02-01T11:21:18.480Z,2656
2017-02-01T11:22:27.755Z,2712
2017-02-01T11:23:37.476Z,2572
2017-02-01T11:24:47.637Z,2824
2017-02-01T11:25:57.517Z,2744
2017-02-01T11:27:06.804Z,2916
2017-02-01T11:28:17.405Z,3028
2017-02-01T11:29:26.682Z,3184
2017-02-01T11:30:36.835Z,2896
2017-02-01T11:31:46.177Z,2812
2017-02-01T11:32:55.888Z,2860
2017-02-01T11:34:06.052Z,2800
2017-02-01T11:35:16.215Z,2696
2017-02-01T11:36:26.381Z,2836
2017-02-01T11:37:36.172Z,2776
2017-02-01T11:38:45.903Z,2872
2017-02-01T11:39:55.625Z,2940
2017-02-01T11:41:05.780Z,2980
2017-02-01T11:42:15.929Z,2968
2017-02-01T11:43:25.694Z,2860
2017-02-01T11:44:35.421Z,2756
2017-02-01T11:45:45.140Z,2820
2017-02-01T11:46:55.735Z,2920
2017-02-01T11:48:05.488Z,2740
2017-02-01T11:49:15.692Z,2724
2017-02-01T11:50:24.970Z,2568
2017-02-01T11:51:34.688Z,2548
2017-02-01T11:52:44.004Z,2652
2017-02-01T11:53:53.295Z,2488
2017-02-01T11:55:04.383Z,2480
2017-02-01T11:56:13.682Z,2468
2017-02-01T11:57:23.844Z,2332
2017-02-01T11:58:34.001Z,2564
2017-02-01T11:59:44.165Z,2892
2017-02-01T12:00:54.367Z,2844
2017-02-01T12:02:04.525Z,2516
2017-02-01T12:03:14.266Z,2396
2017-02-01T12:04:23.554Z,2520
2017-02-01T12:05:33.717Z,3072
2017-02-01T12:06:43.049Z,2888
2017-02-01T12:07:53.200Z,2580
2017-02-01T12:09:02.924Z,2644
2017-02-01T12:10:13.088Z,3148
2017-02-01T12:11:22.804Z,2832
2017-02-01T12:12:32.136Z,2728
2017-02-01T12:13:42.353Z,2828
2017-02-01T12:14:52.083Z,2656
2017-02-01T12:16:02.239Z,2744
2017-02-01T12:17:11.962Z,3004
2017-02-01T12:18:21.739Z,3084
2017-02-01T12:19:31.460Z,2996
2017-02-01T12:20:42.053Z,3068
2017-02-01T12:21:52.214Z,3208
2017-02-01T12:23:01.497Z,3400
2017-02-01T12:24:11.278Z,3268
2017-02-01T12:25:20.561Z,3264
2017-02-01T12:26:30.282Z,3096
2017-02-01T12:27:40.445Z,3032
2017-02-01T12:28:51.040Z,3076
2017-02-01T12:30:01.686Z,2924
2017-02-01T12:31:11.400Z,2888
2017-02-01T12:32:21.558Z,3140
2017-02-01T12:33:31.723Z,3496
2017-02-01T12:34:41.880Z,3512
2017-02-01T12:35:51.678Z,3572
2017-02-01T12:37:00.963Z,3636
2017-02-01T12:38:10.244Z,4164
2017-02-01T12:39:19.526Z,4196
2017-02-01T12:40:28.814Z,4476
2017-02-01T12:41:39.019Z,4708
2017-02-01T12:42:49.620Z,4248
2017-02-01T12:43:59.789Z,3520
2017-02-01T12:45:10.814Z,3292
2017-02-01T12:46:21.413Z,3128
2017-02-01T12:47:31.631Z,3520
2017-02-01T12:48:41.351Z,3588
2017-02-01T12:49:51.506Z,3176
2017-02-01T12:51:01.757Z,2776
2017-02-01T12:52:11.918Z,3508
2017-02-01T12:53:21.725Z,2572
2017-02-01T12:54:31.888Z,2756
2017-02-01T12:55:42.055Z,2800
2017-02-01T12:56:52.212Z,2852
2017-02-01T12:58:01.933Z,2596
2017-02-01T12:59:11.735Z,1944
2017-02-01T13:01:30.693Z,2208
2017-02-01T13:02:40.409Z,2768
2017-02-01T13:03:50.568Z,2544
2017-02-01T13:05:00.331Z,2700
2017-02-01T13:06:10.917Z,2648
2017-02-01T13:07:21.079Z,2616
2017-02-01T13:08:30.795Z,3216
2017-02-01T13:09:40.945Z,3368
2017-02-01T13:10:51.149Z,2768
2017-02-01T13:12:00.887Z,2612
2017-02-01T13:13:10.171Z,3200
2017-02-01T13:14:19.455Z,3176
2017-02-01T13:15:29.178Z,3136
2017-02-01T13:16:39.805Z,3056
2017-02-01T13:17:49.517Z,3224
2017-02-01T13:18:59.680Z,3224
2017-02-01T13:20:09.831Z,3564
2017-02-01T13:21:19.547Z,3548
2017-02-01T13:22:29.516Z,3452
2017-02-01T13:23:38.795Z,3224
2017-02-01T13:24:48.950Z,3280
2017-02-01T13:25:58.232Z,3120
2017-02-01T13:27:07.519Z,2936
2017-02-01T13:28:17.280Z,2876
2017-02-01T13:29:28.298Z,2848
2017-02-01T13:30:38.025Z,2724
2017-02-01T13:31:47.301Z,2532
2017-02-01T13:32:57.013Z,2692
2017-02-01T13:34:06.795Z,2692
2017-02-01T13:35:16.946Z,2596
2017-02-01T13:36:27.110Z,2448
2017-02-01T13:37:36.832Z,2628
2017-02-01T13:38:46.546Z,2232
2017-02-01T13:39:57.185Z,1768
2017-02-01T13:41:07.344Z,1792
2017-02-01T13:42:17.504Z,1680
2017-02-01T13:43:27.667Z,1756
2017-02-01T13:44:37.828Z,1636
2017-02-01T13:45:47.161Z,1732
2017-02-01T13:46:57.315Z,1764
2017-02-01T13:48:06.626Z,1712
2017-02-01T13:49:16.347Z,1556
2017-02-01T13:50:26.943Z,1840
2017-02-01T13:51:36.710Z,1868
2017-02-01T13:52:46.865Z,1740
2017-02-01T13:53:56.145Z,1752
2017-02-01T13:55:05.870Z,1672
2017-02-01T13:56:15.596Z,1544
2017-02-01T13:57:25.827Z,1620
2017-02-01T13:58:35.112Z,1656
2017-02-01T13:59:45.267Z,1700
2017-02-01T14:00:55.442Z,1792
2017-02-01T14:02:05.600Z,1856
2017-02-01T14:03:15.368Z,1444
2017-02-01T14:04:24.648Z,1420
2017-02-01T14:05:34.803Z,1400
2017-02-01T14:06:44.975Z,1268
2017-02-01T14:07:55.134Z,1080
2017-02-01T14:09:04.904Z,1072
2017-02-01T14:10:14.623Z,1048
2017-02-01T14:11:24.337Z,1024
2017-02-01T14:12:33.623Z,888
2017-02-01T14:13:42.908Z,1024
2017-02-01T14:14:52.674Z,1128
2017-02-01T14:16:02.388Z,1108
2017-02-01T14:17:12.116Z,1096
2017-02-01T14:18:21.836Z,1104
2017-02-01T14:19:32.003Z,1164
2017-02-01T14:20:42.235Z,1052
2017-02-01T14:21:52.401Z,964
2017-02-01T14:23:02.553Z,980
2017-02-01T14:24:12.272Z,1080
2017-02-01T14:25:21.548Z,1048
2017-02-01T14:26:32.189Z,1080
2017-02-01T14:27:41.906Z,1140
2017-02-01T14:28:51.629Z,1068
2017-02-01T14:30:02.208Z,960
2017-02-01T14:31:13.594Z,856
2017-02-01T14:32:26.447Z,892
2017-02-01T14:33:39.505Z,888
2017-02-01T14:34:51.562Z,948
2017-02-01T14:36:03.935Z,1148
2017-02-01T14:37:16.141Z,1104
2017-02-01T14:38:28.796Z,1124
2017-02-01T14:39:41.176Z,1104
2017-02-01T14:40:53.545Z,1120
2017-02-01T14:42:04.223Z,1088
2017-02-01T14:43:14.109Z,1064
2017-02-01T14:44:23.386Z,1112
2017-02-01T14:45:32.667Z,1132
2017-02-01T14:46:41.949Z,1012
2017-02-01T14:47:51.674Z,872
2017-02-01T14:49:01.004Z,936
2017-02-01T14:50:11.164Z,1004
2017-02-01T14:51:20.874Z,1240
2017-02-01T14:52:30.589Z,1436
2017-02-01T14:53:40.748Z,1272
2017-02-01T14:54:51.379Z,1124
2017-02-01T14:56:01.537Z,1132
2017-02-01T14:57:11.255Z,1288
2017-02-01T14:58:20.977Z,1256
2017-02-01T14:59:30.697Z,1288
2017-02-01T15:00:40.899Z,1212
2017-02-01T15:01:50.653Z,1060
2017-02-01T15:03:00.378Z,996
2017-02-01T15:04:10.090Z,804
2017-02-01T15:05:19.375Z,692
2017-02-01T15:06:29.140Z,724
2017-02-01T15:07:38.860Z,868
2017-02-01T15:08:48.579Z,768
2017-02-01T15:09:58.302Z,728
2017-02-01T15:11:08.021Z,636
2017-02-01T15:12:18.662Z,608
2017-02-01T15:13:28.829Z,580
2017-02-01T15:14:38.545Z,612
2017-02-01T15:15:48.700Z,632
2017-02-01T15:16:58.853Z,708
2017-02-01T15:18:08.622Z,628
2017-02-01T15:19:19.211Z,648
2017-02-01T15:20:29.367Z,660
2017-02-01T15:21:39.082Z,612
2017-02-01T15:22:49.243Z,604
2017-02-01T15:23:59.008Z,604
2017-02-01T15:25:08.728Z,620
2017-02-01T15:26:19.310Z,632
2017-02-01T15:27:29.032Z,560
2017-02-01T15:28:38.745Z,576
2017-02-01T15:29:49.383Z,560
2017-02-01T15:30:59.104Z,580
2017-02-01T15:32:08.817Z,504
2017-02-01T15:33:18.538Z,444
2017-02-01T15:34:28.254Z,412
2017-02-01T15:35:38.460Z,432
2017-02-01T15:36:47.745Z,400
2017-02-01T15:37:57.899Z,388
2017-02-01T15:39:07.623Z,364
2017-02-01T15:40:17.773Z,328
2017-02-01T15:41:27.545Z,308
2017-02-01T15:42:37.699Z,296
2017-02-01T15:43:47.857Z,276
2017-02-01T15:44:57.572Z,264
2017-02-01T15:46:07.294Z,240
2017-02-01T15:47:17.065Z,228
2017-02-01T15:48:26.345Z,208
2017-02-01T15:49:35.629Z,200
2017-02-01T15:50:45.788Z,188
2017-02-01T15:51:55.941Z,176
2017-02-01T15:53:05.750Z,160
2017-02-01T15:54:16.347Z,152
2017-02-01T15:55:26.063Z,144
2017-02-01T15:56:36.226Z,132
2017-02-01T15:57:45.507Z,128
2017-02-01T15:58:55.709Z,116
2017-02-01T16:00:05.426Z,112
2017-02-01T16:01:15.151Z,96
2017-02-01T16:02:24.872Z,92
2017-02-01T16:03:36.476Z,88
2017-02-01T16:04:49.029Z,80
2017-02-01T16:06:00.490Z,72
2017-02-01T16:07:13.537Z,64
2017-02-01T16:08:26.001Z,64
2017-02-01T16:09:40.543Z,52
2017-02-01T16:10:52.121Z,48
2017-02-01T16:12:04.394Z,44
2017-02-01T16:13:17.769Z,40
2017-02-01T16:14:30.209Z,36
2017-02-01T16:15:42.476Z,36
2017-02-01T16:16:54.786Z,28
2017-02-01T16:18:08.195Z,24
2017-02-01T16:19:21.796Z,24
2017-02-01T16:20:35.433Z,20